»·PEaware :: WAT169 KSNA-KLAS

WAT169 :: KSNA-KLAS

FLIGHT INFORMATION

Flight Status: Arrived
Operator:
Walker Air Transport
More flights by this operator :: More flights under this callsign
Pilot: Marty P. (27464)
Aircraft: BEECH AIRCRAFT SUPER KING AIR 350
(B350)
More flights by this aircraft type
Origin: KSNA John Wayne-Orange Co
United States
Destination: KLAS McCarran Intl
United States
More flights between these airports :: More routes between these airports
Route: MUSEL8 SLI POM GARDY VCV DAG CRESO4
File this flight plan on PilotEdge
Remarks:
Altitude:
(Current/Filed)
27,000ft
Speed:
(Current/Filed)
220kts
Departed: 18-Oct-20 12:58 PM
Arrived: 18-Oct-20 01:52 PM
Distance/Time
Traveled:
196nm/0:54
Distance/Time
To Go:
Arrived

Flight Plot

Page will automatically refresh every two minutes.

Flight plan parsing failed; only flown route is shown


Map Options




Map Legend


Flown Route
Filed Route
Departure Airport
Arrival Airport
Navaid (VOR, NDB)
Fix

Horizontal Profiles

Position Reports

Time Latitude Longitude Heading Altitude Ground
Speed
18-Oct-20 12:39 33.672243 -117.866674 209 61ft 0kts
18-Oct-20 12:40 33.672243 -117.866674 209 61ft 0kts
18-Oct-20 12:41 33.672243 -117.866674 209 61ft 0kts
18-Oct-20 12:42 33.672243 -117.866674 209 61ft 0kts
18-Oct-20 12:43 33.672236 -117.866679 209 61ft 1kts
18-Oct-20 12:44 33.671807 -117.866982 214 61ft 0kts
18-Oct-20 12:45 33.671834 -117.867579 297 61ft 9kts
18-Oct-20 12:46 33.675157 -117.865807 28 61ft 21kts
18-Oct-20 12:47 33.680186 -117.862670 3 61ft 10kts
18-Oct-20 12:48 33.680698 -117.863183 298 61ft 0kts
18-Oct-20 12:49 33.680699 -117.863184 298 61ft 0kts
18-Oct-20 12:50 33.680699 -117.863184 298 61ft 0kts
18-Oct-20 12:51 33.680699 -117.863184 298 61ft 0kts
18-Oct-20 12:52 33.680699 -117.863184 298 61ft 0kts
18-Oct-20 12:53 33.680699 -117.863184 298 61ft 0kts
18-Oct-20 12:54 33.680723 -117.863237 298 61ft 0kts
18-Oct-20 12:55 33.680767 -117.863336 298 61ft 4kts
18-Oct-20 12:56 33.681321 -117.865239 208 61ft 0kts
18-Oct-20 12:57 33.665830 -117.874604 207 728ft 118kts
18-Oct-20 12:58 33.624072 -117.884835 188 2304ft 178kts
18-Oct-20 12:59 33.579779 -117.903795 257 4523ft 181kts
18-Oct-20 13:00 33.572730 -117.962347 295 6679ft 177kts
18-Oct-20 13:01 33.615969 -117.987675 338 9231ft 181kts
18-Oct-20 13:02 33.662469 -118.006373 339 12495ft 180kts
18-Oct-20 13:03 33.710817 -118.025714 339 14570ft 189kts
18-Oct-20 13:04 33.760581 -118.045652 338 17313ft 192kts
18-Oct-20 13:05 33.810148 -118.030442 33 20055ft 208kts
18-Oct-20 13:06 33.856653 -117.988462 33 22675ft 211kts
18-Oct-20 13:07 33.907687 -117.942205 33 24662ft 217kts
18-Oct-20 13:08 33.954992 -117.899319 33 26880ft 216kts
18-Oct-20 13:09 34.010811 -117.848603 34 27091ft 283kts
18-Oct-20 13:10 34.078133 -117.786818 41 27077ft 323kts
18-Oct-20 13:11 34.140410 -117.703600 46 27071ft 338kts
18-Oct-20 13:13 34.202570 -117.619753 46 27065ft 332kts
18-Oct-20 13:14 34.267402 -117.542900 18 27064ft 322kts
18-Oct-20 13:15 34.342200 -117.488101 49 27155ft 324kts
18-Oct-20 13:16 34.399778 -117.403549 48 27118ft 325kts
18-Oct-20 13:17 34.457599 -117.319594 48 27112ft 325kts
18-Oct-20 13:18 34.515415 -117.235468 48 27110ft 324kts
18-Oct-20 13:19 34.573138 -117.151286 48 27117ft 324kts
18-Oct-20 13:20 34.630676 -117.067168 48 27106ft 324kts
18-Oct-20 13:21 34.688172 -116.982906 48 27085ft 324kts
18-Oct-20 13:22 34.745735 -116.898350 48 27061ft 325kts
18-Oct-20 13:23 34.803202 -116.813729 48 27054ft 325kts
18-Oct-20 13:24 34.860713 -116.728837 48 27055ft 324kts
18-Oct-20 13:25 34.917934 -116.644171 48 27055ft 324kts
18-Oct-20 13:26 34.971883 -116.556484 59 27082ft 324kts
18-Oct-20 13:27 35.015109 -116.459753 59 27066ft 325kts
18-Oct-20 13:28 35.058373 -116.362142 59 25753ft 323kts
18-Oct-20 13:29 35.100031 -116.267946 60 24220ft 305kts
18-Oct-20 13:30 35.138327 -116.181105 60 23043ft 273kts
18-Oct-20 13:30 35.170233 -116.108647 60 22861ft 319kts
18-Oct-20 13:32 35.224285 -115.985287 60 21240ft 361kts
18-Oct-20 13:32 35.261090 -115.901186 59 19911ft 323kts
18-Oct-20 13:33 35.302821 -115.805518 59 18414ft 315kts
18-Oct-20 13:34 35.357573 -115.724554 44 16927ft 306kts
18-Oct-20 13:35 35.414609 -115.648440 44 15495ft 301kts
18-Oct-20 13:36 35.470625 -115.573526 45 14101ft 297kts
18-Oct-20 13:37 35.525993 -115.499334 45 12740ft 293kts
18-Oct-20 13:38 35.580604 -115.426032 45 11413ft 288kts
18-Oct-20 13:39 35.633571 -115.354809 45 10100ft 277kts
18-Oct-20 13:40 35.688045 -115.299035 21 9295ft 259kts
18-Oct-20 13:41 35.756055 -115.264905 21 7813ft 267kts
18-Oct-20 13:42 35.824166 -115.230883 21 7035ft 254kts
18-Oct-20 13:43 35.887241 -115.199234 21 6988ft 238kts
18-Oct-20 13:44 35.946953 -115.169176 21 7041ft 228kts
18-Oct-20 13:45 36.005523 -115.139640 21 6834ft 234kts
18-Oct-20 13:46 36.055917 -115.088125 41 5354ft 235kts
18-Oct-20 13:47 36.100239 -115.038825 41 5195ft 202kts
18-Oct-20 13:48 36.139392 -115.059898 291 4230ft 202kts
18-Oct-20 13:49 36.147142 -115.119838 230 3643ft 174kts
18-Oct-20 13:50 36.111554 -115.149595 202 2446ft 136kts
18-Oct-20 13:51 36.089403 -115.162422 225 2126ft 8kts
18-Oct-20 13:52 36.088751 -115.165076 203 2136ft 11kts
18-Oct-20 13:53 36.085764 -115.166838 225 2149ft 12kts
18-Oct-20 13:54 36.083246 -115.168932 202 2162ft 12kts
18-Oct-20 13:55 36.081412 -115.170536 257 2169ft 10kts
18-Oct-20 13:56 36.081086 -115.170997 200 2170ft 0kts
18-Oct-20 13:57 36.081086 -115.170997 200 2170ft 0kts
18-Oct-20 13:58 36.081086 -115.170997 200 2170ft 0kts

Navigation Log

Ident Type
Flight plan parsing failed, navigation log unavailable